Perito Moreno, Argentina
Current Conditions -  °F | °C
As of 6:00 AM on Sunday 26 Oct 2014 (Local Time) from SCBA Reporting Station
Clear Clear  
Wind Chill: 33°   Ceiling: Unl
Heat Index: 43°   Visibility: 6mi
Dew Point: 34°   Wind: 24mph
Humidity: 70%   Direction: 310°NW
Pressure: 29.65"   Gusts: NA
Location:  46.6°S, 70.93°W
Report Text: SCBA 260900Z AUTO 31021KT CAVOK 06/01 Q1004
Loading
Personal Weather Stations






























Interactive Weather Map
Tropical Storm Tracking
New forecast layout! Learn more

10-Day Weather Forecast

Advertisements
Track Severe Weather on mobile